Martinsburg, Pennsylvania
Current Conditions -  °F | °C
As of 12:53 PM on Saturday 20 Dec 2014 (Local Time) from KAOO Reporting Station
Clear Clear  
Wind Chill: 30°   Ceiling: Unl
Heat Index: 30°   Visibility: 10mi
Dew Point: 21°   Wind: 0mph
Humidity: 69%   Direction: NA
Pressure: 30.2"   Gusts: NA
Location:  40.31°N, 78.32°W
Report Text: KAOO 201753Z AUTO 00000KT 10SM CLR M01/M06 A3020 RMK AO2 SLP245 T10111061 11011 21067 58013
Loading
Personal Weather Stations






























Interactive Weather Map New forecast layout! Learn more

10-Day Weather Forecast

Advertisements
Track Severe Weather on mobile